createdAt,value
2018-04-19T00:00:21.606Z,24.07
2018-04-19T00:02:49.058Z,25.20
2018-04-19T00:05:16.525Z,25.30
2018-04-19T00:07:43.977Z,26.53
2018-04-19T00:10:11.455Z,24.97
2018-04-19T00:12:38.914Z,25.70
2018-04-19T00:15:06.381Z,26.47
2018-04-19T00:17:33.838Z,25.13
2018-04-19T00:20:02.075Z,24.50
2018-04-19T00:22:29.526Z,21.93
2018-04-19T00:24:56.988Z,23.13
2018-04-19T00:27:24.445Z,22.47
2018-04-19T00:29:51.915Z,25.43
2018-04-19T00:32:19.373Z,25.53
2018-04-19T00:34:47.601Z,25.50
2018-04-19T00:37:15.062Z,25.40
2018-04-19T00:39:42.530Z,26.53
2018-04-19T00:42:09.985Z,24.20
2018-04-19T00:44:38.369Z,24.87
2018-04-19T00:47:05.826Z,24.40
2018-04-19T00:49:34.052Z,26.37
2018-04-19T00:52:01.510Z,25.23
2018-04-19T00:54:28.970Z,24.33
2018-04-19T00:56:56.449Z,24.83
2018-04-19T00:59:23.907Z,25.20
2018-04-19T01:01:51.376Z,23.20
2018-04-19T01:04:18.835Z,24.37
2018-04-19T01:06:47.073Z,25.27
2018-04-19T01:09:14.535Z,24.20
2018-04-19T01:11:43.910Z,26.37
2018-04-19T01:14:12.142Z,26.03
2018-04-19T01:16:39.616Z,27.93
2018-04-19T01:19:07.101Z,23.87
2018-04-19T01:21:34.568Z,25.63
2018-04-19T01:24:04.017Z,28.57
2018-04-19T01:26:32.258Z,30.30
2018-04-19T01:29:00.698Z,25.77
2018-04-19T01:31:30.842Z,27.10
2018-04-19T01:33:58.294Z,27.57
2018-04-19T01:36:26.537Z,28.53
2018-04-19T01:38:54.000Z,25.37
2018-04-19T01:41:21.465Z,25.73
2018-04-19T01:43:48.933Z,24.47
2018-04-19T01:46:16.403Z,28.07
2018-04-19T01:48:43.870Z,25.70
2018-04-19T01:51:11.329Z,28.30
2018-04-19T01:53:38.785Z,33.77
2018-04-19T01:56:06.248Z,29.13
2018-04-19T01:58:33.721Z,29.40
2018-04-19T02:01:01.199Z,29.73
2018-04-19T02:03:28.656Z,25.90
2018-04-19T02:05:56.135Z,26.37
2018-04-19T02:08:23.596Z,25.33
2018-04-19T02:10:51.830Z,26.50
2018-04-19T02:13:20.293Z,25.63
2018-04-19T02:15:47.760Z,33.47
2018-04-19T02:18:15.223Z,30.50
2018-04-19T02:20:42.697Z,31.07
2018-04-19T02:23:10.166Z,32.17
2018-04-19T02:25:37.643Z,30.90
2018-04-19T02:28:05.102Z,27.50
2018-04-19T02:30:32.600Z,25.47
2018-04-19T02:33:04.638Z,28.50
2018-04-19T02:35:32.878Z,36.50
2018-04-19T02:38:00.334Z,37.10
2018-04-19T02:40:27.797Z,31.57
2018-04-19T02:42:55.258Z,32.07
2018-04-19T02:45:22.719Z,27.30
2018-04-19T02:47:50.197Z,24.17
2018-04-19T02:50:17.648Z,29.70
2018-04-19T02:52:45.109Z,26.30
2018-04-19T02:55:16.362Z,25.00
2018-04-19T02:57:52.012Z,33.50
2018-04-19T03:00:19.471Z,30.70
2018-04-19T03:02:46.952Z,29.60
2018-04-19T03:05:24.442Z,30.00
2018-04-19T03:07:51.910Z,27.63
2018-04-19T03:10:19.365Z,27.10
2018-04-19T03:12:46.858Z,32.97
2018-04-19T03:15:14.327Z,30.70
2018-04-19T03:17:41.794Z,36.70
2018-04-19T03:20:09.246Z,42.80
2018-04-19T03:22:37.702Z,29.50
2018-04-19T03:25:05.162Z,25.17
2018-04-19T03:27:32.628Z,31.30
2018-04-19T03:30:02.042Z,37.03
2018-04-19T03:32:30.283Z,37.67
2018-04-19T03:34:57.738Z,27.97
2018-04-19T03:37:25.214Z,38.27
2018-04-19T03:39:52.673Z,37.60
2018-04-19T03:42:20.148Z,40.17
2018-04-19T03:44:49.522Z,29.90
2018-04-19T03:47:17.749Z,36.47
2018-04-19T03:49:46.189Z,38.87
2018-04-19T03:52:14.430Z,45.20
2018-04-19T03:54:41.890Z,29.27
2018-04-19T03:57:09.415Z,27.60
2018-04-19T03:59:37.637Z,35.67
2018-04-19T04:02:06.033Z,35.27
2018-04-19T04:04:43.280Z,32.47
2018-04-19T04:07:10.753Z,26.53
2018-04-19T04:09:38.200Z,27.27
2018-04-19T04:12:05.662Z,25.27
2018-04-19T04:14:33.134Z,35.90
2018-04-19T04:17:12.309Z,37.67
2018-04-19T04:19:51.725Z,44.07
2018-04-19T04:22:35.722Z,36.70
2018-04-19T04:25:03.183Z,31.43
2018-04-19T04:27:30.671Z,29.40
2018-04-19T04:29:58.911Z,34.70
2018-04-19T04:32:27.355Z,37.83
2018-04-19T04:34:55.584Z,43.97
2018-04-19T04:37:24.043Z,43.10
2018-04-19T04:39:51.518Z,42.43
2018-04-19T04:42:30.818Z,35.10
2018-04-19T04:44:59.265Z,34.67
2018-04-19T04:47:26.726Z,39.97
2018-04-19T04:49:54.202Z,40.77
2018-04-19T04:52:21.658Z,37.73
2018-04-19T04:54:49.125Z,33.20
2018-04-19T04:57:16.594Z,35.67
2018-04-19T04:59:44.826Z,29.20
2018-04-19T05:02:12.293Z,32.87
2018-04-19T05:04:39.758Z,36.80
2018-04-19T05:07:07.217Z,36.97
2018-04-19T05:09:34.685Z,34.73
2018-04-19T05:12:02.154Z,29.03
2018-04-19T05:14:29.665Z,30.67
2018-04-19T05:16:57.912Z,26.93
2018-04-19T05:19:26.969Z,28.50
2018-04-19T05:21:54.428Z,26.50
2018-04-19T05:24:21.896Z,28.40
2018-04-19T05:26:49.354Z,28.20
2018-04-19T05:29:16.830Z,27.63
2018-04-19T05:31:47.041Z,23.57
2018-04-19T05:34:14.485Z,28.47
2018-04-19T05:36:41.941Z,26.30
2018-04-19T05:39:10.170Z,23.87
2018-04-19T05:41:37.630Z,26.10
2018-04-19T05:44:05.097Z,23.53
2018-04-19T05:46:32.558Z,23.10
2018-04-19T05:49:07.145Z,24.27
2018-04-19T05:51:34.609Z,23.30
2018-04-19T05:54:03.047Z,22.57
2018-04-19T05:56:30.515Z,23.87
2018-04-19T05:58:57.993Z,24.80
2018-04-19T06:01:25.446Z,24.30
2018-04-19T06:03:54.668Z,24.73
2018-04-19T06:06:22.130Z,23.80
2018-04-19T06:08:49.608Z,23.73
2018-04-19T06:11:19.011Z,24.03
2018-04-19T06:13:46.490Z,20.97
2018-04-19T06:16:13.958Z,22.70
2018-04-19T06:18:42.249Z,22.87
2018-04-19T06:21:09.729Z,22.20
2018-04-19T06:23:37.191Z,22.33
2018-04-19T06:26:04.676Z,20.70
2018-04-19T06:28:32.133Z,20.93
2018-04-19T06:30:59.614Z,22.67
2018-04-19T06:33:27.077Z,21.17
2018-04-19T06:35:54.552Z,20.00
2018-04-19T06:38:22.026Z,19.27
2018-04-19T06:40:49.489Z,18.47
2018-04-19T06:43:16.955Z,15.93
2018-04-19T06:45:44.425Z,17.03
2018-04-19T06:48:11.883Z,16.17
2018-04-19T06:50:39.354Z,16.27
2018-04-19T06:53:06.822Z,13.80
2018-04-19T06:55:34.281Z,14.23
2018-04-19T06:58:01.750Z,14.70
2018-04-19T07:00:29.985Z,14.60
2018-04-19T07:02:57.446Z,13.43
2018-04-19T07:05:24.927Z,13.80
2018-04-19T07:07:52.385Z,13.80
2018-04-19T07:10:20.623Z,14.47
2018-04-19T07:12:48.849Z,13.50
2018-04-19T07:15:16.319Z,14.50
2018-04-19T07:17:43.783Z,14.40
2018-04-19T07:20:11.244Z,12.00
2018-04-19T07:22:38.707Z,13.17
2018-04-19T07:25:06.181Z,12.83
2018-04-19T07:27:33.642Z,13.50
2018-04-19T07:30:01.878Z,14.23
2018-04-19T07:32:29.342Z,14.27
2018-04-19T07:34:56.810Z,14.53
2018-04-19T07:37:24.275Z,12.60
2018-04-19T07:39:51.742Z,13.97
2018-04-19T07:42:19.196Z,13.90
2018-04-19T07:44:46.678Z,11.63
2018-04-19T07:47:14.143Z,11.53
2018-04-19T07:49:41.612Z,12.00
2018-04-19T07:52:09.068Z,11.83
2018-04-19T07:54:36.535Z,12.70
2018-04-19T07:57:04.001Z,12.27
2018-04-19T07:59:32.231Z,12.00
2018-04-19T08:01:59.694Z,11.63
2018-04-19T08:04:27.166Z,12.00
2018-04-19T08:06:54.622Z,9.90
2018-04-19T08:09:22.110Z,10.60
2018-04-19T08:11:49.573Z,11.10
2018-04-19T08:14:17.035Z,10.60
2018-04-19T08:16:44.520Z,10.13
2018-04-19T08:19:11.987Z,10.67
2018-04-19T08:21:39.451Z,9.00
2018-04-19T08:24:06.915Z,11.47
2018-04-19T08:26:34.383Z,10.27
2018-04-19T08:29:01.834Z,9.20
2018-04-19T08:31:29.306Z,10.57
2018-04-19T08:33:56.763Z,10.73
2018-04-19T08:36:24.230Z,9.50
2018-04-19T08:38:51.691Z,10.10
2018-04-19T08:41:19.930Z,9.37
2018-04-19T08:43:47.393Z,9.50
2018-04-19T08:46:14.861Z,9.03
2018-04-19T08:48:42.310Z,9.53
2018-04-19T08:51:09.805Z,9.23
2018-04-19T08:53:37.262Z,9.10
2018-04-19T08:56:04.726Z,8.17
2018-04-19T08:58:32.178Z,8.77
2018-04-19T09:00:59.638Z,8.27
2018-04-19T09:03:27.894Z,7.73
2018-04-19T09:05:55.367Z,8.50
2018-04-19T09:08:22.827Z,7.70
2018-04-19T09:10:50.280Z,7.03
2018-04-19T09:13:17.728Z,8.20
2018-04-19T09:15:45.200Z,7.00
2018-04-19T09:18:12.668Z,7.33
2018-04-19T09:20:40.138Z,7.00
2018-04-19T09:23:07.630Z,7.70
2018-04-19T09:25:35.891Z,7.93
2018-04-19T09:28:03.349Z,7.83
2018-04-19T09:30:30.814Z,7.20
2018-04-19T09:32:59.043Z,6.90
2018-04-19T09:35:26.513Z,6.60
2018-04-19T09:37:53.961Z,6.73
2018-04-19T09:40:21.434Z,6.60
2018-04-19T09:42:48.894Z,6.47
2018-04-19T09:45:16.358Z,6.77
2018-04-19T09:47:43.813Z,7.10
2018-04-19T09:50:12.052Z,6.53
2018-04-19T09:52:39.511Z,6.20
2018-04-19T09:55:06.973Z,6.17
2018-04-19T09:57:34.434Z,5.37
2018-04-19T10:00:01.902Z,6.13
2018-04-19T10:02:29.358Z,6.40
2018-04-19T10:05:02.582Z,6.53
2018-04-19T10:07:30.041Z,5.97
2018-04-19T10:09:57.505Z,5.53
2018-04-19T10:12:25.744Z,6.00
2018-04-19T10:14:53.203Z,6.10
2018-04-19T10:17:20.662Z,6.27
2018-04-19T10:19:48.886Z,5.70
2018-04-19T10:22:16.362Z,6.23
2018-04-19T10:24:43.813Z,5.83
2018-04-19T10:27:11.294Z,5.40
2018-04-19T10:29:38.736Z,6.10
2018-04-19T10:32:06.206Z,5.10
2018-04-19T10:34:33.657Z,5.63
2018-04-19T10:37:01.127Z,5.70
2018-04-19T10:39:28.584Z,6.17
2018-04-19T10:41:56.065Z,5.07
2018-04-19T10:44:23.528Z,4.90
2018-04-19T10:46:50.993Z,5.43
2018-04-19T10:49:18.454Z,5.17
2018-04-19T10:51:46.685Z,4.60
2018-04-19T10:54:14.149Z,4.30
2018-04-19T10:56:41.623Z,4.87
2018-04-19T10:59:09.082Z,4.93
2018-04-19T11:01:36.553Z,5.50
2018-04-19T11:04:04.013Z,5.00
2018-04-19T11:06:31.482Z,8.00
2018-04-19T11:08:58.941Z,7.43
2018-04-19T11:11:26.450Z,6.40
2018-04-19T11:13:53.905Z,6.93
2018-04-19T11:16:21.379Z,5.30
2018-04-19T11:18:49.129Z,5.43
2018-04-19T11:21:16.613Z,4.70
2018-04-19T11:23:44.073Z,5.53
2018-04-19T11:26:11.555Z,8.60
2018-04-19T11:28:39.009Z,6.70
2018-04-19T11:31:06.484Z,5.80
2018-04-19T11:33:33.936Z,5.77
2018-04-19T11:36:02.161Z,4.70
2018-04-19T11:38:29.625Z,5.13
2018-04-19T11:40:57.102Z,5.20
2018-04-19T11:43:24.573Z,5.17
2018-04-19T11:45:52.041Z,7.90
2018-04-19T11:48:19.505Z,7.30
2018-04-19T11:50:46.961Z,7.70
2018-04-19T11:53:14.435Z,7.27
2018-04-19T11:55:41.885Z,7.23
2018-04-19T11:58:09.359Z,8.60
2018-04-19T12:00:36.813Z,7.73
2018-04-19T12:03:05.049Z,7.20
2018-04-19T12:05:32.514Z,8.50
2018-04-19T12:07:59.990Z,7.20
2018-04-19T12:10:27.441Z,7.73
2018-04-19T12:12:54.909Z,7.97
2018-04-19T12:15:23.143Z,7.60
2018-04-19T12:17:50.606Z,8.10
2018-04-19T12:20:18.069Z,7.30
2018-04-19T12:22:45.543Z,8.10
2018-04-19T12:25:12.999Z,7.40
2018-04-19T12:27:40.483Z,8.27
2018-04-19T12:30:07.953Z,7.67
2018-04-19T12:32:35.418Z,8.00
2018-04-19T12:35:02.893Z,8.13
2018-04-19T12:37:30.422Z,7.03
2018-04-19T12:39:57.829Z,7.63
2018-04-19T12:42:25.290Z,7.63
2018-04-19T12:44:52.757Z,8.70
2018-04-19T12:47:20.235Z,7.70
2018-04-19T12:49:47.689Z,6.50
2018-04-19T12:52:15.161Z,7.33
2018-04-19T12:54:42.653Z,7.37
2018-04-19T12:57:10.082Z,7.57
2018-04-19T12:59:37.529Z,7.40
2018-04-19T13:02:05.002Z,7.20
2018-04-19T13:04:33.243Z,6.80
2018-04-19T13:07:00.719Z,6.80
2018-04-19T13:09:28.174Z,6.10
2018-04-19T13:11:55.645Z,7.63
2018-04-19T13:14:23.108Z,7.10
2018-04-19T13:16:50.570Z,7.90
2018-04-19T13:19:18.035Z,7.30
2018-04-19T13:21:45.497Z,8.23
2018-04-19T13:24:12.958Z,7.33
2018-04-19T13:26:40.429Z,7.70
2018-04-19T13:29:07.878Z,7.83
2018-04-19T13:31:36.110Z,8.00
2018-04-19T13:34:03.569Z,8.13
2018-04-19T13:36:31.046Z,8.27
2018-04-19T13:38:58.504Z,8.50
2018-04-19T13:41:26.325Z,7.70
2018-04-19T13:43:53.773Z,7.80
2018-04-19T13:46:21.250Z,7.70
2018-04-19T13:48:48.719Z,8.03
2018-04-19T13:51:16.189Z,7.33
2018-04-19T13:53:43.654Z,7.77
2018-04-19T13:56:11.119Z,7.60
2018-04-19T13:58:38.574Z,7.37
2018-04-19T14:01:06.040Z,7.57
2018-04-19T14:03:33.509Z,7.07
2018-04-19T14:06:00.979Z,7.93
2018-04-19T14:08:28.477Z,7.23
2018-04-19T14:10:55.932Z,8.23
2018-04-19T14:13:23.442Z,8.33
2018-04-19T14:15:50.859Z,7.70
2018-04-19T14:18:18.334Z,8.10
2018-04-19T14:20:45.821Z,8.23
2018-04-19T14:23:13.278Z,7.50
2018-04-19T14:25:40.735Z,9.13
2018-04-19T14:28:08.980Z,7.57
2018-04-19T14:30:36.431Z,7.93
2018-04-19T14:33:03.898Z,7.40
2018-04-19T14:35:31.363Z,8.10
2018-04-19T14:37:58.826Z,9.73
2018-04-19T14:40:26.282Z,8.70
2018-04-19T14:42:53.752Z,8.70
2018-04-19T14:45:21.210Z,9.40
2018-04-19T14:47:48.685Z,10.20
2018-04-19T14:50:16.146Z,10.67
2018-04-19T14:52:44.699Z,10.83
2018-04-19T14:55:12.158Z,10.73
2018-04-19T14:57:39.636Z,11.00
2018-04-19T15:00:07.090Z,10.90
2018-04-19T15:02:34.557Z,11.00
2018-04-19T15:05:02.020Z,11.50
2018-04-19T15:07:29.485Z,12.57
2018-04-19T15:09:57.214Z,13.60
2018-04-19T15:12:25.806Z,13.00
2018-04-19T15:14:55.070Z,12.53
2018-04-19T15:17:22.573Z,13.10
2018-04-19T15:19:50.029Z,13.50
2018-04-19T15:22:17.509Z,15.00
2018-04-19T15:24:44.960Z,13.40
2018-04-19T15:27:12.429Z,14.23
2018-04-19T15:29:40.654Z,13.23
2018-04-19T15:32:08.121Z,10.70
2018-04-19T15:34:35.577Z,12.30
2018-04-19T15:37:03.061Z,11.13
2018-04-19T15:39:30.514Z,12.20
2018-04-19T15:41:57.986Z,12.40
2018-04-19T15:44:25.451Z,12.80
2018-04-19T15:46:52.914Z,11.77
2018-04-19T15:49:20.364Z,11.90
2018-04-19T15:51:48.605Z,10.57
2018-04-19T15:54:16.058Z,11.50
2018-04-19T15:56:43.529Z,11.57
2018-04-19T15:59:10.998Z,11.03
2018-04-19T16:01:38.470Z,10.50
2018-04-19T16:04:05.929Z,10.40
2018-04-19T16:06:33.389Z,10.50
2018-04-19T16:09:00.861Z,10.40
2018-04-19T16:11:28.325Z,9.50
2018-04-19T16:13:55.802Z,11.50
2018-04-19T16:16:24.172Z,12.50
2018-04-19T16:18:52.448Z,11.43
2018-04-19T16:21:20.641Z,9.30
2018-04-19T16:23:48.110Z,11.93
2018-04-19T16:26:15.572Z,11.63
2018-04-19T16:28:48.623Z,12.10
2018-04-19T16:31:10.507Z,11.03
2018-04-19T16:33:37.974Z,11.87
2018-04-19T16:36:05.429Z,12.00
2018-04-19T16:38:33.670Z,11.03
2018-04-19T16:41:01.135Z,11.60
2018-04-19T16:43:28.605Z,10.80
2018-04-19T16:45:56.069Z,11.40
2018-04-19T16:48:23.541Z,11.70
2018-04-19T16:50:51.006Z,12.00
2018-04-19T16:53:18.481Z,10.80
2018-04-19T16:55:45.936Z,10.30
2018-04-19T16:58:13.405Z,10.13
2018-04-19T17:00:40.865Z,12.90
2018-04-19T17:03:08.478Z,11.13
2018-04-19T17:05:37.589Z,10.40
2018-04-19T17:08:05.866Z,9.60
2018-04-19T17:10:33.328Z,11.50
2018-04-19T17:13:02.643Z,9.50
2018-04-19T17:18:13.646Z,12.20
2018-04-19T17:20:41.113Z,10.60
2018-04-19T17:23:08.587Z,10.70
2018-04-19T17:25:36.815Z,11.13
2018-04-19T17:28:11.332Z,9.80
2018-04-19T17:30:40.965Z,11.20
2018-04-19T17:33:08.427Z,10.70
2018-04-19T17:35:35.886Z,12.73
2018-04-19T17:38:03.356Z,11.00
2018-04-19T17:40:32.729Z,9.53
2018-04-19T17:43:00.969Z,11.10
2018-04-19T17:45:28.434Z,9.77
2018-04-19T17:47:55.919Z,10.67
2018-04-19T17:50:23.379Z,9.77
2018-04-19T17:52:52.297Z,10.23
2018-04-19T17:55:19.746Z,10.87
2018-04-19T17:57:52.301Z,11.93
2018-04-19T18:00:19.765Z,11.47
2018-04-19T18:02:48.002Z,9.87
2018-04-19T18:05:15.458Z,10.30
2018-04-19T18:07:43.553Z,9.80
2018-04-19T18:10:12.713Z,9.60
2018-04-19T18:12:42.956Z,9.33
2018-04-19T18:15:10.481Z,8.90
2018-04-19T18:17:37.961Z,8.17
2018-04-19T18:20:15.879Z,9.33
2018-04-19T18:22:43.355Z,9.20
2018-04-19T18:25:10.815Z,9.53
2018-04-19T18:27:38.281Z,9.80
2018-04-19T18:30:05.737Z,9.03
2018-04-19T18:32:35.221Z,10.20
2018-04-19T18:35:03.441Z,10.03
2018-04-19T18:37:30.907Z,8.80
2018-04-19T18:40:17.846Z,10.10
2018-04-19T18:42:45.312Z,9.80
2018-04-19T18:45:12.775Z,8.30
2018-04-19T18:47:41.235Z,9.23
2018-04-19T18:50:08.689Z,9.90
2018-04-19T18:52:36.924Z,9.80
2018-04-19T18:55:04.374Z,9.67
2018-04-19T18:57:31.853Z,10.83
2018-04-19T18:59:59.314Z,10.60
2018-04-19T19:02:27.447Z,10.47
2018-04-19T19:04:54.916Z,11.40
2018-04-19T19:07:29.547Z,10.40
2018-04-19T19:09:57.013Z,12.43
2018-04-19T19:12:24.483Z,12.47
2018-04-19T19:14:51.948Z,11.53
2018-04-19T19:17:31.168Z,11.93
2018-04-19T19:20:12.221Z,11.93
2018-04-19T19:22:40.447Z,13.70
2018-04-19T19:25:07.909Z,13.50
2018-04-19T19:27:35.366Z,13.33
2018-04-19T19:30:02.831Z,13.03
2018-04-19T19:32:30.286Z,13.70
2018-04-19T19:34:58.512Z,13.57
2018-04-19T19:37:25.968Z,14.37
2018-04-19T19:39:53.508Z,13.33
2018-04-19T19:42:20.909Z,13.80
2018-04-19T19:44:48.379Z,14.30
2018-04-19T19:47:15.845Z,14.23
2018-04-19T19:49:43.311Z,14.27
2018-04-19T19:52:10.766Z,14.10
2018-04-19T19:54:39.007Z,14.00
2018-04-19T19:57:06.462Z,14.60
2018-04-19T19:59:33.933Z,14.83
2018-04-19T20:02:01.394Z,16.10
2018-04-19T20:04:28.874Z,15.43
2018-04-19T20:06:57.110Z,15.53
2018-04-19T20:09:25.354Z,16.23
2018-04-19T20:11:52.797Z,15.70
2018-04-19T20:14:20.277Z,16.80
2018-04-19T20:16:47.736Z,16.30
2018-04-19T20:19:15.205Z,15.87
2018-04-19T20:21:42.893Z,17.47
2018-04-19T20:24:10.353Z,17.57
2018-04-19T20:26:37.809Z,17.90
2018-04-19T20:29:05.286Z,17.60
2018-04-19T20:31:32.742Z,20.50
2018-04-19T20:34:00.988Z,20.33
2018-04-19T20:36:28.447Z,18.43
2018-04-19T20:38:55.913Z,18.33
2018-04-19T20:41:23.379Z,17.13
2018-04-19T20:43:50.858Z,16.87
2018-04-19T20:46:18.314Z,16.43
2018-04-19T20:48:45.796Z,17.47
2018-04-19T20:51:13.261Z,15.77
2018-04-19T20:53:40.730Z,15.70
2018-04-19T20:56:08.195Z,14.47
2018-04-19T20:58:35.661Z,14.80
2018-04-19T21:01:03.121Z,14.90
2018-04-19T21:03:30.585Z,15.50
2018-04-19T21:05:58.058Z,16.83
2018-04-19T21:08:25.521Z,20.00
2018-04-19T21:10:53.007Z,19.07
2018-04-19T21:13:20.453Z,18.83
2018-04-19T21:15:47.926Z,19.20
2018-04-19T21:18:15.376Z,19.37
2018-04-19T21:20:43.617Z,18.20
2018-04-19T21:23:11.081Z,19.10
2018-04-19T21:25:38.553Z,17.77
2018-04-19T21:28:06.011Z,17.50
2018-04-19T21:30:33.472Z,18.10
2018-04-19T21:33:00.948Z,17.20
2018-04-19T21:35:28.423Z,16.57
2018-04-19T21:37:55.877Z,16.63
2018-04-19T21:40:23.346Z,15.27
2018-04-19T21:42:50.804Z,15.93
2018-04-19T21:45:19.046Z,15.73
2018-04-19T21:47:46.496Z,15.43
2018-04-19T21:50:13.970Z,14.00
2018-04-19T21:52:41.439Z,13.23
2018-04-19T21:55:08.917Z,12.67
2018-04-19T21:57:36.391Z,12.43
2018-04-19T22:00:03.860Z,12.17
2018-04-19T22:02:31.321Z,13.10
2018-04-19T22:04:58.802Z,12.57
2018-04-19T22:07:26.257Z,13.70
2018-04-19T22:09:53.735Z,12.80
2018-04-19T22:12:21.194Z,12.80
2018-04-19T22:14:48.698Z,13.30
2018-04-19T22:17:16.112Z,12.77
2018-04-19T22:19:43.591Z,12.20
2018-04-19T22:22:11.045Z,11.97
2018-04-19T22:24:38.518Z,14.30
2018-04-19T22:27:05.971Z,13.70
2018-04-19T22:29:34.206Z,13.83
2018-04-19T22:32:01.661Z,12.60
2018-04-19T22:34:29.133Z,12.83
2018-04-19T22:36:56.598Z,13.03
2018-04-19T22:39:24.066Z,13.13
2018-04-19T22:41:52.290Z,12.83
2018-04-19T22:44:19.756Z,12.07
2018-04-19T22:46:47.224Z,12.17
2018-04-19T22:49:14.695Z,11.97
2018-04-19T22:51:42.149Z,11.23
2018-04-19T22:54:09.608Z,10.47
2018-04-19T22:56:37.069Z,10.70
2018-04-19T22:59:04.530Z,10.50
2018-04-19T23:01:32.002Z,10.27
2018-04-19T23:03:59.464Z,9.23
2018-04-19T23:06:26.974Z,10.27
2018-04-19T23:08:54.443Z,10.70
2018-04-19T23:11:21.908Z,9.97
2018-04-19T23:13:49.366Z,11.83
2018-04-19T23:16:16.832Z,11.47
2018-04-19T23:18:44.293Z,11.50
2018-04-19T23:21:11.763Z,11.70
2018-04-19T23:23:39.231Z,13.47
2018-04-19T23:26:06.700Z,13.23
2018-04-19T23:28:34.148Z,14.20
2018-04-19T23:31:02.391Z,15.43
2018-04-19T23:33:29.853Z,15.90
2018-04-19T23:35:57.321Z,15.23
2018-04-19T23:38:24.803Z,15.40
2018-04-19T23:40:52.278Z,16.77
2018-04-19T23:43:19.738Z,15.53
2018-04-19T23:45:47.204Z,14.67
2018-04-19T23:48:14.667Z,14.20
2018-04-19T23:50:42.138Z,13.67
2018-04-19T23:53:09.589Z,14.20
2018-04-19T23:55:37.062Z,13.87
2018-04-19T23:58:04.522Z,13.83
